sensor_id;sensor_type;location;lat;lon;timestamp;pressure;altitude;pressure_sealevel;temperature;humidity
70009;BME280;59542;37.950;-122.338;2023-04-08T00:01:56;101479.78;;;17.10;65.26
70009;BME280;59542;37.950;-122.338;2023-04-08T00:04:23;101484.50;;;17.14;63.92
70009;BME280;59542;37.950;-122.338;2023-04-08T00:06:49;101475.91;;;17.18;63.93
70009;BME280;59542;37.950;-122.338;2023-04-08T00:09:15;101479.44;;;17.30;63.28
70009;BME280;59542;37.950;-122.338;2023-04-08T00:11:41;101467.56;;;17.07;63.29
70009;BME280;59542;37.950;-122.338;2023-04-08T00:14:08;101469.56;;;17.00;64.16
70009;BME280;59542;37.950;-122.338;2023-04-08T00:16:34;101477.66;;;16.88;63.61
70009;BME280;59542;37.950;-122.338;2023-04-08T00:19:00;101483.06;;;17.00;63.60
70009;BME280;59542;37.950;-122.338;2023-04-08T00:21:27;101485.28;;;16.92;64.17
70009;BME280;59542;37.950;-122.338;2023-04-08T00:23:53;101486.03;;;16.69;64.63
70009;BME280;59542;37.950;-122.338;2023-04-08T00:26:19;101484.56;;;16.84;64.16
70009;BME280;59542;37.950;-122.338;2023-04-08T00:28:45;101492.94;;;16.64;64.00
70009;BME280;59542;37.950;-122.338;2023-04-08T00:31:12;101493.63;;;16.60;63.83
70009;BME280;59542;37.950;-122.338;2023-04-08T00:33:38;101493.63;;;16.78;63.33
70009;BME280;59542;37.950;-122.338;2023-04-08T00:36:04;101486.78;;;16.76;63.93
70009;BME280;59542;37.950;-122.338;2023-04-08T00:38:30;101488.34;;;16.83;64.36
70009;BME280;59542;37.950;-122.338;2023-04-08T00:40:57;101489.25;;;16.77;62.93
70009;BME280;59542;37.950;-122.338;2023-04-08T00:43:23;101484.09;;;16.87;63.39
70009;BME280;59542;37.950;-122.338;2023-04-08T00:45:49;101489.28;;;16.89;63.29
70009;BME280;59542;37.950;-122.338;2023-04-08T00:48:16;101492.81;;;16.89;64.11
70009;BME280;59542;37.950;-122.338;2023-04-08T00:50:42;101487.03;;;16.86;61.71
70009;BME280;59542;37.950;-122.338;2023-04-08T00:53:08;101493.06;;;17.00;60.54
70009;BME280;59542;37.950;-122.338;2023-04-08T00:55:35;101500.94;;;16.89;61.69
70009;BME280;59542;37.950;-122.338;2023-04-08T00:58:01;101499.69;;;16.74;61.09
70009;BME280;59542;37.950;-122.338;2023-04-08T01:00:29;101502.78;;;16.77;61.31
70009;BME280;59542;37.950;-122.338;2023-04-08T01:03:24;101503.97;;;16.93;59.89
70009;BME280;59542;37.950;-122.338;2023-04-08T01:05:55;101515.47;;;16.77;60.63
70009;BME280;59542;37.950;-122.338;2023-04-08T01:08:26;101515.13;;;16.85;59.85
70009;BME280;59542;37.950;-122.338;2023-04-08T01:11:00;101515.47;;;16.77;61.06
70009;BME280;59542;37.950;-122.338;2023-04-08T01:13:30;101519.81;;;16.78;60.76
70009;BME280;59542;37.950;-122.338;2023-04-08T01:16:00;101522.41;;;16.73;60.51
70009;BME280;59542;37.950;-122.338;2023-04-08T01:18:28;101520.94;;;16.40;61.18
70009;BME280;59542;37.950;-122.338;2023-04-08T01:20:55;101524.50;;;16.52;60.85
70009;BME280;59542;37.950;-122.338;2023-04-08T01:23:38;101526.09;;;16.42;61.55
70009;BME280;59542;37.950;-122.338;2023-04-08T01:26:06;101521.06;;;16.45;61.05
70009;BME280;59542;37.950;-122.338;2023-04-08T01:28:32;101529.41;;;16.44;62.06
70009;BME280;59542;37.950;-122.338;2023-04-08T01:31:01;101530.78;;;16.34;61.73
70009;BME280;59542;37.950;-122.338;2023-04-08T01:33:28;101514.41;;;16.29;61.63
70009;BME280;59542;37.950;-122.338;2023-04-08T01:35:56;101522.91;;;16.15;61.73
70009;BME280;59542;37.950;-122.338;2023-04-08T01:38:25;101526.81;;;16.19;60.66
70009;BME280;59542;37.950;-122.338;2023-04-08T01:40:51;101518.50;;;16.02;60.20
70009;BME280;59542;37.950;-122.338;2023-04-08T01:43:19;101517.06;;;15.81;62.16
70009;BME280;59542;37.950;-122.338;2023-04-08T01:45:46;101525.47;;;15.73;63.29
70009;BME280;59542;37.950;-122.338;2023-04-08T01:48:14;101526.94;;;15.69;62.23
70009;BME280;59542;37.950;-122.338;2023-04-08T01:50:43;101527.22;;;15.61;62.46
70009;BME280;59542;37.950;-122.338;2023-04-08T01:53:10;101533.78;;;15.71;62.47
70009;BME280;59542;37.950;-122.338;2023-04-08T01:55:39;101534.09;;;15.56;61.65
70009;BME280;59542;37.950;-122.338;2023-04-08T01:58:08;101539.28;;;15.58;61.98
70009;BME280;59542;37.950;-122.338;2023-04-08T02:00:39;101537.59;;;15.64;62.78
70009;BME280;59542;37.950;-122.338;2023-04-08T02:03:07;101536.13;;;15.61;61.91
70009;BME280;59542;37.950;-122.338;2023-04-08T02:05:37;101538.78;;;15.68;61.36
70009;BME280;59542;37.950;-122.338;2023-04-08T02:08:04;101539.47;;;15.38;61.23
70009;BME280;59542;37.950;-122.338;2023-04-08T02:10:30;101541.75;;;15.10;62.20
70009;BME280;59542;37.950;-122.338;2023-04-08T02:12:57;101544.66;;;15.08;63.21
70009;BME280;59542;37.950;-122.338;2023-04-08T02:15:24;101549.88;;;15.03;61.86
70009;BME280;59542;37.950;-122.338;2023-04-08T02:17:59;101548.28;;;14.95;62.49
70009;BME280;59542;37.950;-122.338;2023-04-08T02:20:37;101542.53;;;14.85;63.16
70009;BME280;59542;37.950;-122.338;2023-04-08T02:25:42;101548.97;;;14.84;62.82
70009;BME280;59542;37.950;-122.338;2023-04-08T02:28:10;101546.16;;;14.72;63.23
70009;BME280;59542;37.950;-122.338;2023-04-08T02:30:43;101547.47;;;14.57;64.00
70009;BME280;59542;37.950;-122.338;2023-04-08T02:33:10;101551.41;;;14.61;63.77
70009;BME280;59542;37.950;-122.338;2023-04-08T02:35:39;101544.59;;;14.45;64.53
70009;BME280;59542;37.950;-122.338;2023-04-08T02:38:07;101539.25;;;14.32;64.88
70009;BME280;59542;37.950;-122.338;2023-04-08T02:40:34;101546.25;;;14.46;64.56
70009;BME280;59542;37.950;-122.338;2023-04-08T02:43:00;101549.16;;;14.38;64.23
70009;BME280;59542;37.950;-122.338;2023-04-08T02:45:29;101539.28;;;14.25;64.19
70009;BME280;59542;37.950;-122.338;2023-04-08T02:47:57;101545.13;;;14.22;64.79
70009;BME280;59542;37.950;-122.338;2023-04-08T02:50:24;101545.28;;;14.34;64.65
70009;BME280;59542;37.950;-122.338;2023-04-08T02:52:50;101545.69;;;14.31;64.50
70009;BME280;59542;37.950;-122.338;2023-04-08T02:55:16;101550.19;;;14.43;64.62
70009;BME280;59542;37.950;-122.338;2023-04-08T02:57:43;101548.56;;;14.36;65.05
70009;BME280;59542;37.950;-122.338;2023-04-08T03:00:09;101550.47;;;14.29;64.90
70009;BME280;59542;37.950;-122.338;2023-04-08T03:02:36;101560.25;;;14.16;65.36
70009;BME280;59542;37.950;-122.338;2023-04-08T03:05:02;101562.50;;;14.19;66.13
70009;BME280;59542;37.950;-122.338;2023-04-08T03:07:30;101554.91;;;13.96;66.54
70009;BME280;59542;37.950;-122.338;2023-04-08T03:09:57;101552.81;;;13.98;66.48
70009;BME280;59542;37.950;-122.338;2023-04-08T03:12:23;101557.59;;;13.96;66.07
70009;BME280;59542;37.950;-122.338;2023-04-08T03:14:52;101556.19;;;13.94;66.29
70009;BME280;59542;37.950;-122.338;2023-04-08T03:17:20;101569.22;;;13.84;66.37
70009;BME280;59542;37.950;-122.338;2023-04-08T03:19:46;101563.66;;;13.72;67.10
70009;BME280;59542;37.950;-122.338;2023-04-08T03:22:13;101576.72;;;13.62;67.55
70009;BME280;59542;37.950;-122.338;2023-04-08T03:24:39;101577.09;;;13.65;67.97
70009;BME280;59542;37.950;-122.338;2023-04-08T03:27:05;101581.25;;;13.61;68.39
70009;BME280;59542;37.950;-122.338;2023-04-08T03:29:33;101590.78;;;13.64;68.42
70009;BME280;59542;37.950;-122.338;2023-04-08T03:31:59;101592.63;;;13.70;68.44
70009;BME280;59542;37.950;-122.338;2023-04-08T03:34:25;101595.31;;;13.70;68.47
70009;BME280;59542;37.950;-122.338;2023-04-08T03:36:52;101598.81;;;13.70;68.36
70009;BME280;59542;37.950;-122.338;2023-04-08T03:39:18;101606.09;;;13.63;68.60
70009;BME280;59542;37.950;-122.338;2023-04-08T03:41:44;101599.47;;;13.66;68.60
70009;BME280;59542;37.950;-122.338;2023-04-08T03:44:10;101603.59;;;13.62;68.85
70009;BME280;59542;37.950;-122.338;2023-04-08T03:46:37;101608.34;;;13.60;69.03
70009;BME280;59542;37.950;-122.338;2023-04-08T03:49:03;101618.91;;;13.61;69.14
70009;BME280;59542;37.950;-122.338;2023-04-08T03:51:29;101629.47;;;13.69;68.58
70009;BME280;59542;37.950;-122.338;2023-04-08T03:53:55;101631.53;;;13.54;69.10
70009;BME280;59542;37.950;-122.338;2023-04-08T03:56:22;101641.66;;;13.52;69.20
70009;BME280;59542;37.950;-122.338;2023-04-08T03:58:49;101637.94;;;13.33;69.77
70009;BME280;59542;37.950;-122.338;2023-04-08T04:01:16;101637.13;;;13.53;69.15
70009;BME280;59542;37.950;-122.338;2023-04-08T04:03:42;101653.97;;;13.13;70.28
70009;BME280;59542;37.950;-122.338;2023-04-08T04:06:08;101648.00;;;13.18;70.14
70009;BME280;59542;37.950;-122.338;2023-04-08T04:08:34;101670.53;;;13.17;69.62
70009;BME280;59542;37.950;-122.338;2023-04-08T04:11:01;101672.91;;;12.85;69.48
70009;BME280;59542;37.950;-122.338;2023-04-08T04:13:27;101673.94;;;12.78;69.36
70009;BME280;59542;37.950;-122.338;2023-04-08T04:15:53;101682.97;;;12.70;69.39
70009;BME280;59542;37.950;-122.338;2023-04-08T04:18:19;101685.22;;;12.32;70.55
70009;BME280;59542;37.950;-122.338;2023-04-08T04:20:46;101678.41;;;12.29;70.17
70009;BME280;59542;37.950;-122.338;2023-04-08T04:23:12;101683.44;;;12.39;69.68
70009;BME280;59542;37.950;-122.338;2023-04-08T04:25:41;101685.91;;;12.40;68.98
70009;BME280;59542;37.950;-122.338;2023-04-08T04:28:08;101691.41;;;12.32;68.82
70009;BME280;59542;37.950;-122.338;2023-04-08T04:30:38;101699.84;;;12.23;68.50
70009;BME280;59542;37.950;-122.338;2023-04-08T04:33:05;101697.41;;;12.28;68.14
70009;BME280;59542;37.950;-122.338;2023-04-08T04:35:32;101691.22;;;12.27;68.61
70009;BME280;59542;37.950;-122.338;2023-04-08T04:37:58;101700.25;;;12.26;68.17
70009;BME280;59542;37.950;-122.338;2023-04-08T04:40:25;101706.81;;;12.17;68.93
70009;BME280;59542;37.950;-122.338;2023-04-08T04:42:51;101706.13;;;12.08;69.62
70009;BME280;59542;37.950;-122.338;2023-04-08T04:45:18;101715.56;;;12.32;67.87
70009;BME280;59542;37.950;-122.338;2023-04-08T04:47:44;101711.38;;;12.17;67.56
70009;BME280;59542;37.950;-122.338;2023-04-08T04:50:10;101711.28;;;12.10;68.03
70009;BME280;59542;37.950;-122.338;2023-04-08T04:52:36;101709.63;;;12.09;68.03
70009;BME280;59542;37.950;-122.338;2023-04-08T04:55:03;101706.31;;;12.07;68.31
70009;BME280;59542;37.950;-122.338;2023-04-08T04:57:29;101699.47;;;12.04;68.67
70009;BME280;59542;37.950;-122.338;2023-04-08T04:59:56;101694.53;;;12.01;68.31
70009;BME280;59542;37.950;-122.338;2023-04-08T05:02:22;101696.50;;;12.21;68.34
70009;BME280;59542;37.950;-122.338;2023-04-08T05:04:48;101693.53;;;12.37;68.23
70009;BME280;59542;37.950;-122.338;2023-04-08T05:07:14;101692.50;;;12.38;68.38
70009;BME280;59542;37.950;-122.338;2023-04-08T05:09:41;101696.25;;;12.43;68.11
70009;BME280;59542;37.950;-122.338;2023-04-08T05:12:07;101695.91;;;12.60;66.97
70009;BME280;59542;37.950;-122.338;2023-04-08T05:14:33;101694.69;;;12.56;65.80
70009;BME280;59542;37.950;-122.338;2023-04-08T05:16:59;101694.78;;;12.41;66.00
70009;BME280;59542;37.950;-122.338;2023-04-08T05:19:26;101693.47;;;12.30;65.63
70009;BME280;59542;37.950;-122.338;2023-04-08T05:21:52;101697.50;;;12.48;65.30
70009;BME280;59542;37.950;-122.338;2023-04-08T05:24:18;101693.16;;;12.47;65.63
70009;BME280;59542;37.950;-122.338;2023-04-08T05:26:44;101700.19;;;12.48;66.24
70009;BME280;59542;37.950;-122.338;2023-04-08T05:29:12;101695.88;;;12.53;65.86
70009;BME280;59542;37.950;-122.338;2023-04-08T05:31:38;101688.47;;;12.55;64.96
70009;BME280;59542;37.950;-122.338;2023-04-08T05:34:05;101700.63;;;12.51;65.01
70009;BME280;59542;37.950;-122.338;2023-04-08T05:36:31;101695.91;;;12.60;65.15
70009;BME280;59542;37.950;-122.338;2023-04-08T05:38:57;101683.34;;;12.60;65.17
70009;BME280;59542;37.950;-122.338;2023-04-08T05:41:24;101695.84;;;12.47;66.15
70009;BME280;59542;37.950;-122.338;2023-04-08T05:43:50;101698.59;;;12.60;63.88
70009;BME280;59542;37.950;-122.338;2023-04-08T05:46:16;101705.63;;;12.26;65.08
70009;BME280;59542;37.950;-122.338;2023-04-08T05:48:42;101703.41;;;12.02;66.19
70009;BME280;59542;37.950;-122.338;2023-04-08T05:51:15;101701.53;;;12.02;65.28
70009;BME280;59542;37.950;-122.338;2023-04-08T05:53:44;101703.09;;;11.90;66.18
70009;BME280;59542;37.950;-122.338;2023-04-08T05:56:11;101694.06;;;11.76;67.14
70009;BME280;59542;37.950;-122.338;2023-04-08T05:58:37;101683.31;;;11.76;67.23
70009;BME280;59542;37.950;-122.338;2023-04-08T06:01:04;101692.28;;;11.62;67.69
70009;BME280;59542;37.950;-122.338;2023-04-08T06:03:32;101697.50;;;11.70;67.26
70009;BME280;59542;37.950;-122.338;2023-04-08T06:05:58;101694.00;;;11.70;67.02
70009;BME280;59542;37.950;-122.338;2023-04-08T06:08:24;101692.19;;;11.77;67.18
70009;BME280;59542;37.950;-122.338;2023-04-08T06:10:51;101706.34;;;11.85;66.99
70009;BME280;59542;37.950;-122.338;2023-04-08T06:13:17;101705.72;;;11.83;67.34
70009;BME280;59542;37.950;-122.338;2023-04-08T06:15:45;101697.97;;;11.74;68.37
70009;BME280;59542;37.950;-122.338;2023-04-08T06:18:15;101697.00;;;12.03;67.14
70009;BME280;59542;37.950;-122.338;2023-04-08T06:20:41;101691.50;;;12.11;67.13
70009;BME280;59542;37.950;-122.338;2023-04-08T06:23:07;101700.25;;;11.98;67.89
70009;BME280;59542;37.950;-122.338;2023-04-08T06:25:34;101698.28;;;11.64;69.44
70009;BME280;59542;37.950;-122.338;2023-04-08T06:28:00;101696.38;;;11.58;70.31
70009;BME280;59542;37.950;-122.338;2023-04-08T06:30:26;101688.47;;;11.50;70.54
70009;BME280;59542;37.950;-122.338;2023-04-08T06:32:52;101693.16;;;11.48;70.63
70009;BME280;59542;37.950;-122.338;2023-04-08T06:35:18;101687.25;;;11.52;70.21
70009;BME280;59542;37.950;-122.338;2023-04-08T06:37:45;101691.41;;;11.55;70.57
70009;BME280;59542;37.950;-122.338;2023-04-08T06:40:11;101692.81;;;11.51;70.98
70009;BME280;59542;37.950;-122.338;2023-04-08T06:42:37;101689.81;;;11.39;71.47
70009;BME280;59542;37.950;-122.338;2023-04-08T06:45:05;101691.00;;;11.36;71.56
70009;BME280;59542;37.950;-122.338;2023-04-08T06:47:32;101685.91;;;11.42;71.49
70009;BME280;59542;37.950;-122.338;2023-04-08T06:49:58;101689.19;;;11.44;71.61
70009;BME280;59542;37.950;-122.338;2023-04-08T06:52:25;101682.09;;;11.51;71.53
70009;BME280;59542;37.950;-122.338;2023-04-08T06:54:51;101680.91;;;11.60;71.21
70009;BME280;59542;37.950;-122.338;2023-04-08T06:57:18;101679.91;;;11.40;71.86
70009;BME280;59542;37.950;-122.338;2023-04-08T06:59:44;101688.97;;;11.39;72.08
70009;BME280;59542;37.950;-122.338;2023-04-08T07:02:11;101698.97;;;11.30;72.30
70009;BME280;59542;37.950;-122.338;2023-04-08T07:04:37;101701.53;;;11.38;72.18
70009;BME280;59542;37.950;-122.338;2023-04-08T07:07:03;101694.97;;;11.62;71.66
70009;BME280;59542;37.950;-122.338;2023-04-08T07:09:29;101694.81;;;11.49;71.56
70009;BME280;59542;37.950;-122.338;2023-04-08T07:11:57;101705.41;;;11.35;72.04
70009;BME280;59542;37.950;-122.338;2023-04-08T07:14:24;101703.50;;;11.29;72.33
70009;BME280;59542;37.950;-122.338;2023-04-08T07:16:50;101714.50;;;11.56;71.83
70009;BME280;59542;37.950;-122.338;2023-04-08T07:19:16;101719.34;;;11.46;72.05
70009;BME280;59542;37.950;-122.338;2023-04-08T07:21:43;101731.34;;;11.28;72.49
70009;BME280;59542;37.950;-122.338;2023-04-08T07:24:09;101722.28;;;11.15;73.01
70009;BME280;59542;37.950;-122.338;2023-04-08T07:26:37;101710.03;;;11.05;73.41
70009;BME280;59542;37.950;-122.338;2023-04-08T07:29:03;101708.19;;;11.06;73.27
70009;BME280;59542;37.950;-122.338;2023-04-08T07:31:29;101718.59;;;11.16;73.37
70009;BME280;59542;37.950;-122.338;2023-04-08T07:33:56;101714.53;;;11.20;73.38
70009;BME280;59542;37.950;-122.338;2023-04-08T07:36:22;101699.63;;;10.81;74.89
70009;BME280;59542;37.950;-122.338;2023-04-08T07:38:48;101711.47;;;10.72;75.38
70009;BME280;59542;37.950;-122.338;2023-04-08T07:41:14;101723.19;;;10.86;74.86
70009;BME280;59542;37.950;-122.338;2023-04-08T07:43:41;101719.19;;;10.96;74.68
70009;BME280;59542;37.950;-122.338;2023-04-08T07:46:07;101713.00;;;10.96;74.51
70009;BME280;59542;37.950;-122.338;2023-04-08T07:48:34;101705.16;;;10.94;74.72
70009;BME280;59542;37.950;-122.338;2023-04-08T07:51:04;101702.38;;;11.02;74.50
70009;BME280;59542;37.950;-122.338;2023-04-08T07:53:31;101712.09;;;10.59;76.20
70009;BME280;59542;37.950;-122.338;2023-04-08T07:55:58;101713.47;;;10.70;75.89
70009;BME280;59542;37.950;-122.338;2023-04-08T07:58:24;101710.34;;;10.81;75.34
70009;BME280;59542;37.950;-122.338;2023-04-08T08:00:51;101698.59;;;10.82;75.12
70009;BME280;59542;37.950;-122.338;2023-04-08T08:03:18;101692.34;;;10.90;74.78
70009;BME280;59542;37.950;-122.338;2023-04-08T08:05:44;101694.47;;;10.79;75.16
70009;BME280;59542;37.950;-122.338;2023-04-08T08:08:10;101705.53;;;10.76;74.84
70009;BME280;59542;37.950;-122.338;2023-04-08T08:10:38;101708.97;;;10.70;75.00
70009;BME280;59542;37.950;-122.338;2023-04-08T08:13:05;101714.53;;;10.16;77.32
70009;BME280;59542;37.950;-122.338;2023-04-08T08:15:32;101717.41;;;9.92;78.77
70009;BME280;59542;37.950;-122.338;2023-04-08T08:17:59;101719.22;;;9.99;78.69
70009;BME280;59542;37.950;-122.338;2023-04-08T08:20:25;101722.50;;;10.24;77.74
70009;BME280;59542;37.950;-122.338;2023-04-08T08:22:51;101723.63;;;10.30;76.97
70009;BME280;59542;37.950;-122.338;2023-04-08T08:25:18;101721.59;;;10.32;76.68
70009;BME280;59542;37.950;-122.338;2023-04-08T08:27:44;101725.09;;;10.32;76.98
70009;BME280;59542;37.950;-122.338;2023-04-08T08:30:10;101725.19;;;10.24;77.42
70009;BME280;59542;37.950;-122.338;2023-04-08T08:32:37;101721.13;;;10.28;77.28
70009;BME280;59542;37.950;-122.338;2023-04-08T08:35:03;101723.91;;;10.35;77.29
70009;BME280;59542;37.950;-122.338;2023-04-08T08:37:29;101729.47;;;9.88;79.03
70009;BME280;59542;37.950;-122.338;2023-04-08T08:39:56;101735.78;;;9.95;79.21
70009;BME280;59542;37.950;-122.338;2023-04-08T08:42:23;101724.13;;;10.11;78.37
70009;BME280;59542;37.950;-122.338;2023-04-08T08:44:50;101721.34;;;10.19;78.12
70009;BME280;59542;37.950;-122.338;2023-04-08T08:47:17;101726.16;;;9.86;79.83
70009;BME280;59542;37.950;-122.338;2023-04-08T08:49:44;101732.13;;;9.73;80.10
70009;BME280;59542;37.950;-122.338;2023-04-08T08:52:14;101728.44;;;9.74;80.55
70009;BME280;59542;37.950;-122.338;2023-04-08T08:54:42;101738.47;;;9.72;80.63
70009;BME280;59542;37.950;-122.338;2023-04-08T08:57:20;101740.97;;;9.73;80.77
70009;BME280;59542;37.950;-122.338;2023-04-08T08:59:46;101735.81;;;9.72;80.78
70009;BME280;59542;37.950;-122.338;2023-04-08T09:02:29;101743.00;;;9.94;80.21
70009;BME280;59542;37.950;-122.338;2023-04-08T09:05:01;101738.53;;;9.87;80.37
70009;BME280;59542;37.950;-122.338;2023-04-08T09:07:29;101728.78;;;9.94;79.42
70009;BME280;59542;37.950;-122.338;2023-04-08T09:09:57;101726.47;;;9.91;80.08
70009;BME280;59542;37.950;-122.338;2023-04-08T09:12:24;101725.41;;;10.15;78.93
70009;BME280;59542;37.950;-122.338;2023-04-08T09:15:03;101726.38;;;9.99;79.53
70009;BME280;59542;37.950;-122.338;2023-04-08T09:17:34;101729.25;;;9.97;79.76
70009;BME280;59542;37.950;-122.338;2023-04-08T09:20:09;101730.91;;;9.98;79.50
70009;BME280;59542;37.950;-122.338;2023-04-08T09:23:08;101740.31;;;9.94;79.83
70009;BME280;59542;37.950;-122.338;2023-04-08T09:25:34;101740.75;;;9.98;79.78
70009;BME280;59542;37.950;-122.338;2023-04-08T09:28:02;101734.59;;;9.97;79.91
70009;BME280;59542;37.950;-122.338;2023-04-08T09:30:31;101740.13;;;9.96;80.28
70009;BME280;59542;37.950;-122.338;2023-04-08T09:32:58;101731.03;;;10.05;80.05
70009;BME280;59542;37.950;-122.338;2023-04-08T09:35:25;101732.00;;;10.04;80.06
70009;BME280;59542;37.950;-122.338;2023-04-08T09:37:52;101715.19;;;10.18;79.76
70009;BME280;59542;37.950;-122.338;2023-04-08T09:40:18;101704.28;;;10.05;80.25
70009;BME280;59542;37.950;-122.338;2023-04-08T09:42:46;101694.22;;;10.07;80.06
70009;BME280;59542;37.950;-122.338;2023-04-08T09:45:16;101688.88;;;10.07;79.71
70009;BME280;59542;37.950;-122.338;2023-04-08T09:50:29;101703.63;;;10.03;80.29
70009;BME280;59542;37.950;-122.338;2023-04-08T09:53:44;101709.72;;;10.12;80.11
70009;BME280;59542;37.950;-122.338;2023-04-08T09:55:55;101708.13;;;10.25;79.69
70009;BME280;59542;37.950;-122.338;2023-04-08T09:58:27;101710.88;;;10.32;79.25
70009;BME280;59542;37.950;-122.338;2023-04-08T10:00:54;101715.78;;;10.58;77.99
70009;BME280;59542;37.950;-122.338;2023-04-08T10:03:25;101709.88;;;10.48;78.09
70009;BME280;59542;37.950;-122.338;2023-04-08T10:05:53;101710.72;;;10.34;78.75
70009;BME280;59542;37.950;-122.338;2023-04-08T10:08:22;101699.72;;;10.28;79.13
70009;BME280;59542;37.950;-122.338;2023-04-08T10:10:50;101696.66;;;10.17;79.63
70009;BME280;59542;37.950;-122.338;2023-04-08T10:13:16;101698.53;;;10.31;79.24
70009;BME280;59542;37.950;-122.338;2023-04-08T10:15:43;101704.53;;;10.10;79.87
70009;BME280;59542;37.950;-122.338;2023-04-08T10:20:48;101704.59;;;9.18;85.26
70009;BME280;59542;37.950;-122.338;2023-04-08T10:23:15;101704.06;;;9.46;84.28
70009;BME280;59542;37.950;-122.338;2023-04-08T10:25:43;101707.75;;;9.45;84.24
70009;BME280;59542;37.950;-122.338;2023-04-08T10:30:52;101706.81;;;9.84;82.91
70009;BME280;59542;37.950;-122.338;2023-04-08T10:35:48;101706.19;;;9.96;82.34
70009;BME280;59542;37.950;-122.338;2023-04-08T10:38:15;101711.69;;;9.57;83.80
70009;BME280;59542;37.950;-122.338;2023-04-08T10:40:42;101706.19;;;9.96;82.71
70009;BME280;59542;37.950;-122.338;2023-04-08T10:43:11;101718.66;;;10.04;81.85
70009;BME280;59542;37.950;-122.338;2023-04-08T10:45:41;101721.44;;;10.34;79.55
70009;BME280;59542;37.950;-122.338;2023-04-08T10:48:23;101716.94;;;10.11;80.31
70009;BME280;59542;37.950;-122.338;2023-04-08T10:50:57;101718.47;;;10.05;81.22
70009;BME280;59542;37.950;-122.338;2023-04-08T10:53:34;101724.25;;;9.94;81.75
70009;BME280;59542;37.950;-122.338;2023-04-08T10:56:07;101733.03;;;10.03;81.65
70009;BME280;59542;37.950;-122.338;2023-04-08T10:58:55;101727.69;;;10.03;81.99
70009;BME280;59542;37.950;-122.338;2023-04-08T11:01:22;101731.66;;;10.07;81.85
70009;BME280;59542;37.950;-122.338;2023-04-08T11:03:48;101719.22;;;10.14;81.55
70009;BME280;59542;37.950;-122.338;2023-04-08T11:06:15;101715.25;;;10.10;81.96
70009;BME280;59542;37.950;-122.338;2023-04-08T11:08:42;101719.94;;;10.08;82.13
70009;BME280;59542;37.950;-122.338;2023-04-08T11:11:12;101709.34;;;10.15;81.73
70009;BME280;59542;37.950;-122.338;2023-04-08T11:13:43;101710.66;;;10.19;81.62
70009;BME280;59542;37.950;-122.338;2023-04-08T11:16:10;101712.84;;;10.00;82.05
70009;BME280;59542;37.950;-122.338;2023-04-08T11:18:37;101704.44;;;9.89;82.43
70009;BME280;59542;37.950;-122.338;2023-04-08T11:21:09;101701.31;;;10.00;82.22
70009;BME280;59542;37.950;-122.338;2023-04-08T11:23:36;101692.84;;;10.11;81.27
70009;BME280;59542;37.950;-122.338;2023-04-08T11:26:02;101693.09;;;10.01;81.31
70009;BME280;59542;37.950;-122.338;2023-04-08T11:28:29;101687.75;;;10.01;81.13
70009;BME280;59542;37.950;-122.338;2023-04-08T11:30:56;101687.13;;;9.76;82.28
70009;BME280;59542;37.950;-122.338;2023-04-08T11:33:26;101681.50;;;9.25;84.60
70009;BME280;59542;37.950;-122.338;2023-04-08T11:35:52;101669.34;;;9.23;84.15
70009;BME280;59542;37.950;-122.338;2023-04-08T11:38:22;101673.97;;;8.98;85.09
70009;BME280;59542;37.950;-122.338;2023-04-08T11:40:58;101660.59;;;9.06;84.79
70009;BME280;59542;37.950;-122.338;2023-04-08T11:43:25;101664.34;;;8.89;86.24
70009;BME280;59542;37.950;-122.338;2023-04-08T11:45:51;101660.72;;;9.13;85.20
70009;BME280;59542;37.950;-122.338;2023-04-08T11:48:18;101668.31;;;8.93;85.52
70009;BME280;59542;37.950;-122.338;2023-04-08T11:50:44;101670.88;;;8.86;86.49
70009;BME280;59542;37.950;-122.338;2023-04-08T11:53:20;101666.28;;;8.64;87.42
70009;BME280;59542;37.950;-122.338;2023-04-08T11:55:47;101670.69;;;8.88;86.31
70009;BME280;59542;37.950;-122.338;2023-04-08T11:58:14;101667.75;;;8.75;86.95
70009;BME280;59542;37.950;-122.338;2023-04-08T12:00:41;101678.97;;;9.01;85.93
70009;BME280;59542;37.950;-122.338;2023-04-08T12:03:07;101690.00;;;8.98;85.40
70009;BME280;59542;37.950;-122.338;2023-04-08T12:05:34;101691.19;;;8.95;85.58
70009;BME280;59542;37.950;-122.338;2023-04-08T12:08:01;101698.88;;;9.21;84.09
70009;BME280;59542;37.950;-122.338;2023-04-08T12:10:27;101710.56;;;9.20;83.67
70009;BME280;59542;37.950;-122.338;2023-04-08T12:12:54;101719.91;;;9.24;83.38
70009;BME280;59542;37.950;-122.338;2023-04-08T12:15:20;101724.22;;;9.25;82.83
70009;BME280;59542;37.950;-122.338;2023-04-08T12:17:46;101728.84;;;9.40;82.09
70009;BME280;59542;37.950;-122.338;2023-04-08T12:20:13;101737.16;;;9.45;81.67
70009;BME280;59542;37.950;-122.338;2023-04-08T12:22:41;101730.81;;;9.69;81.17
70009;BME280;59542;37.950;-122.338;2023-04-08T12:25:08;101743.16;;;9.70;81.31
70009;BME280;59542;37.950;-122.338;2023-04-08T12:27:34;101746.50;;;9.95;80.75
70009;BME280;59542;37.950;-122.338;2023-04-08T12:30:01;101734.72;;;9.58;82.35
70009;BME280;59542;37.950;-122.338;2023-04-08T12:32:28;101729.56;;;9.25;84.41
70009;BME280;59542;37.950;-122.338;2023-04-08T12:34:54;101712.22;;;9.21;84.81
70009;BME280;59542;37.950;-122.338;2023-04-08T12:37:20;101690.34;;;9.26;85.07
70009;BME280;59542;37.950;-122.338;2023-04-08T12:39:47;101677.25;;;9.39;84.42